createdAt,value
2022-08-20T00:02:09.520Z,1.60
2022-08-20T00:04:36.748Z,1.50
2022-08-20T00:07:07.622Z,2.03
2022-08-20T00:09:36.463Z,1.45
2022-08-20T00:12:05.443Z,1.60
2022-08-20T00:14:33.914Z,1.50
2022-08-20T00:17:01.772Z,1.60
2022-08-20T00:19:29.577Z,1.58
2022-08-20T00:21:57.562Z,1.10
2022-08-20T00:24:25.652Z,1.33
2022-08-20T00:26:52.738Z,1.50
2022-08-20T00:29:20.500Z,1.75
2022-08-20T00:31:49.352Z,1.60
2022-08-20T00:34:16.098Z,1.83
2022-08-20T00:36:42.721Z,1.40
2022-08-20T00:39:09.339Z,1.70
2022-08-20T00:41:35.924Z,1.83
2022-08-20T00:44:15.670Z,1.60
2022-08-20T00:46:43.910Z,1.50
2022-08-20T00:49:17.436Z,2.03
2022-08-20T00:51:55.505Z,1.23
2022-08-20T00:54:57.960Z,1.13
2022-08-20T00:57:54.809Z,1.00
2022-08-20T01:00:37.749Z,1.17
2022-08-20T01:03:09.776Z,1.15
2022-08-20T01:05:38.403Z,1.00
2022-08-20T01:08:05.864Z,1.30
2022-08-20T01:10:37.198Z,1.23
2022-08-20T01:13:10.915Z,1.10
2022-08-20T01:15:43.607Z,1.20
2022-08-20T01:18:18.273Z,1.00
2022-08-20T01:21:00.737Z,1.33
2022-08-20T01:23:54.356Z,1.77
2022-08-20T01:26:39.954Z,1.20
2022-08-20T01:29:29.418Z,1.27
2022-08-20T01:32:01.446Z,1.10
2022-08-20T01:34:31.826Z,1.00
2022-08-20T01:36:58.880Z,1.30
2022-08-20T01:39:32.467Z,1.17
2022-08-20T01:42:02.022Z,0.90
2022-08-20T01:44:29.796Z,1.02
2022-08-20T01:46:59.602Z,1.15
2022-08-20T01:49:29.843Z,1.10
2022-08-20T01:52:00.877Z,1.52
2022-08-20T01:54:28.440Z,1.23
2022-08-20T01:57:10.516Z,1.63
2022-08-20T01:59:37.366Z,1.45
2022-08-20T02:02:04.540Z,1.10
2022-08-20T02:04:31.314Z,1.10
2022-08-20T02:07:01.642Z,1.10
2022-08-20T02:09:30.864Z,1.25
2022-08-20T02:11:58.017Z,1.27
2022-08-20T02:14:26.478Z,1.20
2022-08-20T02:16:54.909Z,1.40
2022-08-20T02:19:41.275Z,1.38
2022-08-20T02:22:20.286Z,0.98
2022-08-20T02:24:48.723Z,1.10
2022-08-20T02:27:15.860Z,1.20
2022-08-20T02:29:42.546Z,1.83
2022-08-20T02:32:24.227Z,1.40
2022-08-20T02:34:56.094Z,1.33
2022-08-20T02:37:22.704Z,1.20
2022-08-20T02:39:49.457Z,1.08
2022-08-20T02:42:16.888Z,1.00
2022-08-20T02:44:43.586Z,1.25
2022-08-20T02:47:10.140Z,0.95
2022-08-20T02:49:36.895Z,1.13
2022-08-20T02:52:03.725Z,1.50
2022-08-20T02:54:30.646Z,1.25
2022-08-20T02:56:57.298Z,0.93
2022-08-20T02:59:24.084Z,1.20
2022-08-20T03:01:59.495Z,0.73
2022-08-20T03:04:28.476Z,0.95
2022-08-20T03:06:55.091Z,1.05
2022-08-20T03:09:21.857Z,1.02
2022-08-20T03:11:48.835Z,1.75
2022-08-20T03:14:15.448Z,1.35
2022-08-20T03:16:43.058Z,1.15
2022-08-20T03:19:09.694Z,1.05
2022-08-20T03:21:36.759Z,1.30
2022-08-20T03:24:03.613Z,1.30
2022-08-20T03:26:30.231Z,1.27
2022-08-20T03:28:57.221Z,1.40
2022-08-20T03:31:23.934Z,1.13
2022-08-20T03:33:53.568Z,1.02
2022-08-20T03:36:24.202Z,1.00
2022-08-20T03:38:59.232Z,0.97
2022-08-20T03:41:26.490Z,1.13
2022-08-20T03:43:53.349Z,1.20
2022-08-20T03:46:23.185Z,1.20
2022-08-20T03:49:00.264Z,1.05
2022-08-20T03:51:31.826Z,1.05
2022-08-20T03:54:18.308Z,0.93
2022-08-20T03:56:45.028Z,1.20
2022-08-20T03:59:11.633Z,1.27
2022-08-20T04:01:46.071Z,1.50
2022-08-20T04:04:14.839Z,1.25
2022-08-20T04:06:42.778Z,1.20
2022-08-20T04:09:11.954Z,1.38
2022-08-20T04:11:39.328Z,1.25
2022-08-20T04:14:05.946Z,1.40
2022-08-20T04:16:33.519Z,1.85
2022-08-20T04:19:02.352Z,1.17
2022-08-20T04:21:33.818Z,1.10
2022-08-20T04:24:03.040Z,1.15
2022-08-20T04:26:30.387Z,1.13
2022-08-20T04:28:57.181Z,1.00
2022-08-20T04:31:33.308Z,1.15
2022-08-20T04:34:04.940Z,1.08
2022-08-20T04:36:31.624Z,1.30
2022-08-20T04:38:58.259Z,1.42
2022-08-20T04:41:24.934Z,1.20
2022-08-20T04:43:54.057Z,1.23
2022-08-20T04:46:23.628Z,1.23
2022-08-20T04:48:50.806Z,1.25
2022-08-20T04:51:18.681Z,1.27
2022-08-20T04:53:51.994Z,1.35
2022-08-20T04:56:23.247Z,1.30
2022-08-20T04:58:51.174Z,1.80
2022-08-20T05:01:18.309Z,1.20
2022-08-20T05:03:47.622Z,1.63
2022-08-20T05:06:16.070Z,1.40
2022-08-20T05:08:42.740Z,2.00
2022-08-20T05:11:34.389Z,1.85
2022-08-20T05:13:57.395Z,1.60
2022-08-20T05:16:24.511Z,1.60
2022-08-20T05:18:52.762Z,1.63
2022-08-20T05:21:20.589Z,1.70
2022-08-20T05:23:47.353Z,1.58
2022-08-20T05:26:16.017Z,1.20
2022-08-20T05:28:54.031Z,2.03
2022-08-20T05:31:31.734Z,1.55
2022-08-20T05:34:09.580Z,1.50
2022-08-20T05:36:42.493Z,1.45
2022-08-20T05:39:10.371Z,1.30
2022-08-20T05:41:38.650Z,1.23
2022-08-20T05:44:09.784Z,1.17
2022-08-20T05:46:40.454Z,1.45
2022-08-20T05:49:09.122Z,1.38
2022-08-20T05:51:36.932Z,1.40
2022-08-20T05:54:05.896Z,1.65
2022-08-20T05:56:33.912Z,1.30
2022-08-20T05:59:04.731Z,1.58
2022-08-20T06:01:33.567Z,1.50
2022-08-20T06:04:19.228Z,1.80
2022-08-20T06:06:47.403Z,1.30
2022-08-20T06:09:30.678Z,1.73
2022-08-20T06:12:06.207Z,1.70
2022-08-20T06:14:33.818Z,1.50
2022-08-20T06:17:06.485Z,1.52
2022-08-20T06:19:35.106Z,1.35
2022-08-20T06:22:08.683Z,1.60
2022-08-20T06:24:44.853Z,1.50
2022-08-20T06:27:15.546Z,1.35
2022-08-20T06:29:42.290Z,1.08
2022-08-20T06:32:08.883Z,1.60
2022-08-20T06:34:35.636Z,1.60
2022-08-20T06:37:02.260Z,1.30
2022-08-20T06:39:31.114Z,1.42
2022-08-20T06:41:58.636Z,1.70
2022-08-20T06:44:25.939Z,1.58
2022-08-20T06:46:52.619Z,1.58
2022-08-20T06:49:19.184Z,2.13
2022-08-20T06:51:45.694Z,1.50
2022-08-20T06:54:17.270Z,1.70
2022-08-20T06:56:44.132Z,1.45
2022-08-20T06:59:10.937Z,1.70
2022-08-20T07:01:37.545Z,1.40
2022-08-20T07:04:05.573Z,1.33
2022-08-20T07:06:32.182Z,1.45
2022-08-20T07:08:58.860Z,1.55
2022-08-20T07:11:28.511Z,1.23
2022-08-20T07:13:58.303Z,1.23
2022-08-20T07:16:25.606Z,1.27
2022-08-20T07:18:52.200Z,1.10
2022-08-20T07:21:18.832Z,1.30
2022-08-20T07:23:45.922Z,1.08
2022-08-20T07:26:13.253Z,1.02
2022-08-20T07:28:39.995Z,1.48
2022-08-20T07:31:25.800Z,1.73
2022-08-20T07:33:53.692Z,1.23
2022-08-20T07:36:20.363Z,1.40
2022-08-20T07:38:48.246Z,1.30
2022-08-20T07:41:15.244Z,1.15
2022-08-20T07:43:45.768Z,1.50
2022-08-20T07:46:15.731Z,1.08
2022-08-20T07:48:49.614Z,1.00
2022-08-20T07:51:19.129Z,1.20
2022-08-20T07:53:47.021Z,0.85
2022-08-20T07:56:16.145Z,1.25
2022-08-20T07:58:50.012Z,1.02
2022-08-20T08:01:22.804Z,1.23
2022-08-20T08:03:50.736Z,1.00
2022-08-20T08:06:29.082Z,1.20
2022-08-20T08:09:01.603Z,1.10
2022-08-20T08:11:28.323Z,1.55
2022-08-20T08:13:55.056Z,1.15
2022-08-20T08:16:21.908Z,1.30
2022-08-20T08:18:53.143Z,1.10
2022-08-20T08:21:20.981Z,1.05
2022-08-20T08:23:47.814Z,1.00
2022-08-20T08:26:19.009Z,0.90
2022-08-20T08:28:46.735Z,1.00
2022-08-20T08:31:14.729Z,1.20
2022-08-20T08:33:42.441Z,1.35
2022-08-20T08:36:15.055Z,0.80
2022-08-20T08:38:44.694Z,0.95
2022-08-20T08:41:29.320Z,1.10
2022-08-20T08:44:06.776Z,1.30
2022-08-20T08:46:40.300Z,1.05
2022-08-20T08:49:12.298Z,1.05
2022-08-20T08:51:48.764Z,0.80
2022-08-20T08:54:21.406Z,0.50
2022-08-20T08:56:50.043Z,0.75
2022-08-20T08:59:18.745Z,0.90
2022-08-20T09:01:53.707Z,1.20
2022-08-20T09:04:28.443Z,0.90
2022-08-20T09:06:55.092Z,0.90
2022-08-20T09:09:26.408Z,0.50
2022-08-20T09:11:56.201Z,0.65
2022-08-20T09:14:25.556Z,0.50
2022-08-20T09:16:53.604Z,0.43
2022-08-20T09:19:21.503Z,0.70
2022-08-20T09:21:48.436Z,0.55
2022-08-20T09:24:15.122Z,0.60
2022-08-20T09:26:41.843Z,0.85
2022-08-20T09:29:08.396Z,0.60
2022-08-20T09:31:37.767Z,0.63
2022-08-20T09:34:05.834Z,0.60
2022-08-20T09:36:33.121Z,0.70
2022-08-20T09:39:00.734Z,0.75
2022-08-20T09:41:29.845Z,0.52
2022-08-20T09:43:56.415Z,0.50
2022-08-20T09:46:27.214Z,0.85
2022-08-20T09:48:55.237Z,0.60
2022-08-20T09:51:22.575Z,0.70
2022-08-20T09:53:49.348Z,0.30
2022-08-20T09:56:17.032Z,0.50
2022-08-20T09:58:53.341Z,0.50
2022-08-20T10:01:21.904Z,0.50
2022-08-20T10:03:49.646Z,0.50
2022-08-20T10:06:19.757Z,0.60
2022-08-20T10:08:47.229Z,0.40
2022-08-20T10:11:15.099Z,0.40
2022-08-20T10:13:42.004Z,0.57
2022-08-20T10:16:08.751Z,0.50
2022-08-20T10:18:36.656Z,0.47
2022-08-20T10:21:08.599Z,0.55
2022-08-20T10:23:35.277Z,0.40
2022-08-20T10:26:01.896Z,0.50
2022-08-20T10:28:28.601Z,0.60
2022-08-20T10:30:55.161Z,0.50
2022-08-20T10:33:21.955Z,0.50
2022-08-20T10:35:48.581Z,0.50
2022-08-20T10:38:16.322Z,0.50
2022-08-20T10:40:43.081Z,0.50
2022-08-20T10:43:19.123Z,0.60
2022-08-20T10:45:45.863Z,0.40
2022-08-20T10:48:12.798Z,0.65
2022-08-20T10:50:39.697Z,0.50
2022-08-20T10:53:06.398Z,0.60
2022-08-20T10:55:33.035Z,0.50
2022-08-20T10:57:59.786Z,0.60
2022-08-20T11:00:26.605Z,0.57
2022-08-20T11:02:53.235Z,0.57
2022-08-20T11:05:19.943Z,0.50
2022-08-20T11:07:55.129Z,0.40
2022-08-20T11:10:29.203Z,0.60
2022-08-20T11:12:56.167Z,0.40
2022-08-20T11:15:22.978Z,0.63
2022-08-20T11:17:49.981Z,0.40
2022-08-20T11:20:19.618Z,0.70
2022-08-20T11:22:47.071Z,0.57
2022-08-20T11:25:13.788Z,0.30
2022-08-20T11:27:45.017Z,0.40
2022-08-20T11:30:15.376Z,0.60
2022-08-20T11:32:42.075Z,0.50
2022-08-20T11:35:38.550Z,0.52
2022-08-20T11:37:56.554Z,0.45
2022-08-20T11:40:24.758Z,0.60
2022-08-20T11:43:12.955Z,0.70
2022-08-20T11:45:38.123Z,0.40
2022-08-20T11:48:05.276Z,0.60
2022-08-20T11:50:32.436Z,0.40
2022-08-20T11:52:59.352Z,0.50
2022-08-20T11:55:30.605Z,0.50
2022-08-20T11:57:59.812Z,0.45
2022-08-20T12:00:31.917Z,0.47
2022-08-20T12:02:59.489Z,0.40
2022-08-20T12:05:27.448Z,0.40
2022-08-20T12:07:54.146Z,0.40
2022-08-20T12:10:22.982Z,0.40
2022-08-20T12:12:49.741Z,0.43
2022-08-20T12:15:16.582Z,0.40
2022-08-20T12:17:43.278Z,0.35
2022-08-20T12:20:13.410Z,0.43
2022-08-20T12:22:40.602Z,0.40
2022-08-20T12:25:08.584Z,0.40
2022-08-20T12:27:37.339Z,0.50
2022-08-20T12:30:08.856Z,0.40
2022-08-20T12:32:35.692Z,0.85
2022-08-20T12:35:02.840Z,0.30
2022-08-20T12:37:31.512Z,0.32
2022-08-20T12:40:00.235Z,0.40
2022-08-20T12:42:29.181Z,0.30
2022-08-20T12:44:56.406Z,0.35
2022-08-20T12:47:31.659Z,0.43
2022-08-20T12:50:06.702Z,0.50
2022-08-20T12:55:01.104Z,0.40
2022-08-20T12:57:31.062Z,0.40
2022-08-20T13:00:04.838Z,0.30
2022-08-20T13:02:31.766Z,0.47
2022-08-20T13:05:04.305Z,0.60
2022-08-20T13:07:32.518Z,0.28
2022-08-20T13:10:00.306Z,0.45
2022-08-20T13:12:27.082Z,0.30
2022-08-20T13:14:53.945Z,0.50
2022-08-20T13:17:22.669Z,0.40
2022-08-20T13:20:09.506Z,0.30
2022-08-20T13:22:36.669Z,0.40
2022-08-20T13:25:05.067Z,0.35
2022-08-20T13:27:31.919Z,0.30
2022-08-20T13:29:59.152Z,0.40
2022-08-20T13:32:26.453Z,0.30
2022-08-20T13:34:53.213Z,0.30
2022-08-20T13:37:25.536Z,0.38
2022-08-20T13:39:54.411Z,0.70
2022-08-20T13:42:21.380Z,0.35
2022-08-20T13:44:49.447Z,0.30
2022-08-20T13:47:23.024Z,0.45
2022-08-20T13:49:56.096Z,0.30
2022-08-20T13:52:23.438Z,0.47
2022-08-20T13:54:50.609Z,0.50
2022-08-20T13:57:18.764Z,0.38
2022-08-20T13:59:48.192Z,0.40
2022-08-20T14:02:16.326Z,0.30
2022-08-20T14:04:42.893Z,0.43
2022-08-20T14:07:15.230Z,0.50
2022-08-20T14:09:43.976Z,0.30
2022-08-20T14:12:12.342Z,0.30
2022-08-20T14:14:40.502Z,0.40
2022-08-20T14:17:17.553Z,0.40
2022-08-20T14:19:45.830Z,0.30
2022-08-20T14:22:12.793Z,0.30
2022-08-20T14:24:39.474Z,0.30
2022-08-20T14:27:09.514Z,0.30
2022-08-20T14:29:38.735Z,1.20
2022-08-20T14:32:06.830Z,1.13
2022-08-20T14:34:34.320Z,0.70
2022-08-20T14:37:22.586Z,0.30
2022-08-20T14:39:52.592Z,0.30
2022-08-20T14:42:20.730Z,0.40
2022-08-20T14:44:47.303Z,0.30
2022-08-20T14:47:26.333Z,0.45
2022-08-20T14:49:54.986Z,0.28
2022-08-20T14:52:23.321Z,0.40
2022-08-20T14:54:54.956Z,0.35
2022-08-20T14:57:21.698Z,0.30
2022-08-20T14:59:49.052Z,0.50
2022-08-20T15:02:17.258Z,0.30
2022-08-20T15:04:45.545Z,0.43
2022-08-20T15:07:25.104Z,0.20
2022-08-20T15:09:53.145Z,0.50
2022-08-20T15:12:20.250Z,0.30
2022-08-20T15:14:48.126Z,0.30
2022-08-20T15:17:24.658Z,0.40
2022-08-20T15:19:52.222Z,0.50
2022-08-20T15:22:20.135Z,0.45
2022-08-20T15:24:47.470Z,0.43
2022-08-20T15:27:22.625Z,0.40
2022-08-20T15:29:50.987Z,0.40
2022-08-20T15:32:17.790Z,0.40
2022-08-20T15:34:44.703Z,0.40
2022-08-20T15:37:12.436Z,0.47
2022-08-20T15:39:40.175Z,0.40
2022-08-20T15:42:08.388Z,0.38
2022-08-20T15:44:36.087Z,0.40
2022-08-20T15:47:31.513Z,0.38
2022-08-20T15:50:13.849Z,0.50
2022-08-20T15:52:45.073Z,0.40
2022-08-20T15:55:15.583Z,0.47
2022-08-20T15:58:10.242Z,0.40
2022-08-20T16:01:28.461Z,0.40
2022-08-20T16:04:16.622Z,0.40
2022-08-20T16:06:46.634Z,0.40
2022-08-20T16:09:18.935Z,0.30
2022-08-20T16:12:04.816Z,0.47
2022-08-20T16:14:38.301Z,0.68
2022-08-20T16:17:13.593Z,0.30
2022-08-20T16:20:09.309Z,0.47
2022-08-20T16:25:05.972Z,0.32
2022-08-20T16:27:54.471Z,0.60
2022-08-20T16:30:43.661Z,0.55
2022-08-20T16:33:13.412Z,0.38
2022-08-20T16:35:54.667Z,0.40
2022-08-20T16:38:45.934Z,0.40
2022-08-20T16:41:24.499Z,0.40
2022-08-20T16:43:54.727Z,0.40
2022-08-20T16:46:26.036Z,0.40
2022-08-20T16:48:58.413Z,0.40
2022-08-20T16:51:40.868Z,0.60
2022-08-20T16:54:09.244Z,0.45
2022-08-20T16:56:38.853Z,0.50
2022-08-20T16:59:11.594Z,0.20
2022-08-20T17:01:39.231Z,0.50
2022-08-20T17:04:07.978Z,0.40
2022-08-20T17:06:46.356Z,0.68
2022-08-20T17:09:21.511Z,0.75
2022-08-20T17:11:48.399Z,0.55
2022-08-20T17:14:18.297Z,0.70
2022-08-20T17:16:50.657Z,0.90
2022-08-20T17:19:28.006Z,1.15
2022-08-20T17:21:56.208Z,0.70
2022-08-20T17:24:32.019Z,0.60
2022-08-20T17:27:10.580Z,0.50
2022-08-20T17:29:49.782Z,0.75
2022-08-20T17:32:24.428Z,0.45
2022-08-20T17:34:54.779Z,0.60
2022-08-20T17:37:28.358Z,0.55
2022-08-20T17:40:15.882Z,0.60
2022-08-20T17:42:58.574Z,0.60
2022-08-20T17:45:30.425Z,0.40
2022-08-20T17:48:00.056Z,0.70
2022-08-20T17:50:35.155Z,0.50
2022-08-20T17:55:36.808Z,0.40
2022-08-20T17:58:06.761Z,0.68
2022-08-20T18:00:34.118Z,0.43
2022-08-20T18:03:15.068Z,0.50
2022-08-20T18:05:43.567Z,0.40
2022-08-20T18:08:41.633Z,2.45
2022-08-20T18:11:19.836Z,1.10
2022-08-20T18:13:59.352Z,1.55
2022-08-20T18:16:31.019Z,0.98
2022-08-20T18:19:20.783Z,1.13
2022-08-20T18:21:47.415Z,1.10
2022-08-20T18:24:38.516Z,0.63
2022-08-20T18:27:11.945Z,0.65
2022-08-20T18:29:42.883Z,1.08
2022-08-20T18:32:33.992Z,1.10
2022-08-20T18:35:31.163Z,1.42
2022-08-20T18:37:57.941Z,1.83
2022-08-20T18:40:33.259Z,1.08
2022-08-20T18:43:12.295Z,0.80
2022-08-20T18:45:38.911Z,1.40
2022-08-20T18:48:06.030Z,0.70
2022-08-20T18:50:46.245Z,0.98
2022-08-20T18:53:12.858Z,1.30
2022-08-20T18:55:45.481Z,0.93
2022-08-20T18:58:48.784Z,2.75
2022-08-20T19:01:15.640Z,1.02
2022-08-20T19:03:47.592Z,0.93
2022-08-20T19:06:41.527Z,1.05
2022-08-20T19:09:20.710Z,0.88
2022-08-20T19:12:08.973Z,0.47
2022-08-20T19:14:44.100Z,0.60
2022-08-20T19:19:41.571Z,0.80
2022-08-20T19:22:12.686Z,3.10
2022-08-20T19:24:44.229Z,2.55
2022-08-20T19:27:12.623Z,1.00
2022-08-20T19:29:49.106Z,2.92
2022-08-20T19:32:44.476Z,1.20
2022-08-20T19:35:18.154Z,0.75
2022-08-20T19:37:50.525Z,0.60
2022-08-20T19:40:38.923Z,1.40
2022-08-20T19:43:14.384Z,1.23
2022-08-20T19:45:55.728Z,0.30
2022-08-20T19:48:41.624Z,0.40
2022-08-20T19:51:25.448Z,0.35
2022-08-20T19:53:52.905Z,0.40
2022-08-20T19:56:25.497Z,0.30
2022-08-20T19:59:05.185Z,0.30
2022-08-20T20:01:33.727Z,0.47
2022-08-20T20:04:03.474Z,0.32
2022-08-20T20:06:36.242Z,0.35
2022-08-20T20:09:28.038Z,0.30
2022-08-20T20:12:10.754Z,0.40
2022-08-20T20:14:52.514Z,0.38
2022-08-20T20:17:36.631Z,0.30
2022-08-20T20:20:34.990Z,0.40
2022-08-20T20:23:14.340Z,0.30
2022-08-20T20:25:45.076Z,0.45
2022-08-20T20:28:11.843Z,0.40
2022-08-20T20:30:40.277Z,0.50
2022-08-20T20:33:17.485Z,0.40
2022-08-20T20:35:46.008Z,0.35
2022-08-20T20:38:27.723Z,0.30
2022-08-20T20:41:01.953Z,0.40
2022-08-20T20:43:33.350Z,0.20
2022-08-20T20:46:21.530Z,0.30
2022-08-20T20:48:55.375Z,0.40
2022-08-20T20:51:26.367Z,0.40
2022-08-20T20:53:56.911Z,0.30
2022-08-20T20:56:26.541Z,0.35
2022-08-20T20:58:53.787Z,0.25
2022-08-20T21:01:27.292Z,0.30
2022-08-20T21:04:09.616Z,0.32
2022-08-20T21:06:36.553Z,0.30
2022-08-20T21:09:03.176Z,0.35
2022-08-20T21:11:29.750Z,0.50
2022-08-20T21:13:56.583Z,0.35
2022-08-20T21:16:23.206Z,0.30
2022-08-20T21:18:49.823Z,0.20
2022-08-20T21:21:16.441Z,0.30
2022-08-20T21:23:43.078Z,0.30
2022-08-20T21:26:09.895Z,0.55
2022-08-20T21:28:36.527Z,0.40
2022-08-20T21:31:03.220Z,0.50
2022-08-20T21:33:30.019Z,0.60
2022-08-20T21:35:56.885Z,0.40
2022-08-20T21:38:23.964Z,0.38
2022-08-20T21:40:50.899Z,0.30
2022-08-20T21:43:17.986Z,0.60
2022-08-20T21:45:45.668Z,0.40
2022-08-20T21:48:16.410Z,0.40
2022-08-20T21:50:43.632Z,0.40
2022-08-20T21:53:12.897Z,0.50
2022-08-20T21:55:40.924Z,0.47
2022-08-20T21:58:08.379Z,0.38
2022-08-20T22:00:47.157Z,0.57
2022-08-20T22:03:15.190Z,0.60
2022-08-20T22:05:42.314Z,0.40
2022-08-20T22:08:10.253Z,0.52
2022-08-20T22:10:37.567Z,0.82
2022-08-20T22:13:04.284Z,0.80
2022-08-20T22:15:30.894Z,0.52
2022-08-20T22:17:57.642Z,0.40
2022-08-20T22:20:25.103Z,0.40
2022-08-20T22:22:51.896Z,0.50
2022-08-20T22:25:18.553Z,0.28
2022-08-20T22:27:45.815Z,0.30
2022-08-20T22:30:12.548Z,0.50
2022-08-20T22:32:52.097Z,0.40
2022-08-20T22:35:25.873Z,0.40
2022-08-20T22:37:52.445Z,0.47
2022-08-20T22:40:19.107Z,0.43
2022-08-20T22:42:45.685Z,0.82
2022-08-20T22:45:14.765Z,0.40
2022-08-20T22:47:43.046Z,0.45
2022-08-20T22:50:12.048Z,0.40
2022-08-20T22:52:42.043Z,0.50
2022-08-20T22:55:09.516Z,0.30
2022-08-20T22:57:36.575Z,0.40
2022-08-20T23:00:08.743Z,0.70
2022-08-20T23:02:35.357Z,0.65
2022-08-20T23:05:02.220Z,0.40
2022-08-20T23:07:28.899Z,0.40
2022-08-20T23:09:55.493Z,0.50
2022-08-20T23:12:22.496Z,0.68
2022-08-20T23:14:49.062Z,0.40
2022-08-20T23:17:19.998Z,0.50
2022-08-20T23:19:48.808Z,0.40
2022-08-20T23:22:16.008Z,0.70
2022-08-20T23:24:43.001Z,0.40
2022-08-20T23:27:14.439Z,0.55
2022-08-20T23:29:41.353Z,0.40
2022-08-20T23:32:08.334Z,0.50
2022-08-20T23:34:35.079Z,0.70
2022-08-20T23:37:02.480Z,0.57
2022-08-20T23:39:29.467Z,0.35
2022-08-20T23:41:57.437Z,0.50
2022-08-20T23:44:26.359Z,0.40
2022-08-20T23:47:01.159Z,0.50
2022-08-20T23:49:29.978Z,0.30
2022-08-20T23:51:57.803Z,0.30
2022-08-20T23:54:24.595Z,0.40
2022-08-20T23:56:51.454Z,0.43
2022-08-20T23:59:24.185Z,0.63
